Aérodrome :
LOGIN :

S'inscrire | Disclaimer

   EN    FR    IT 

 










Légende :    VFR   VFR Marginal   IFR   IFR Intensif   IFR Très Intensif
Visi : 
Plafond : 
>= 8 km
>= 3000ft
5 à 8 km
1000 à 3000 ft
1500m à 5 km
500 à 1000 ft
800 à 1500m
200 à 500 ft
< 800m
< 200 ft
Symboles :   Orages  Brouillard  Fortes neiges  Fortes précipitations  Vent > 20 kt
SIGMETs :   Divers  Orages  Givrage  Turbulence  Onde Orograph.  Cendres Volcan.






- Altitude de l'aérodrome : 100 ft


EBDT - Schaffen

DERNIER METAR :
  • 272125Z AUTO 26007KT 9999 FEW055/// BKN220/// 02/00 Q1010 BLU

METARs EXPIRÉS :
  • 272055Z AUTO 26008KT 9999 FEW050/// BKN220/// 02/01 Q1009 BLU
  • 272025Z AUTO 27005KT 9999 BKN210/// 02/01 Q1008 BLU
  • 271955Z AUTO 29007KT 9999 FEW007/// SCT150/// BKN220/// 02/01 Q1007 BLU
  • 271913Z AUTO 32011KT 9999 -RASN SCT003/// BKN021/// BKN032/// 02/01 Q1006 YLO

Prévision TAF périmée.



MET'MAP, la Météo Aéronautique d'un coup d'oeil ! - Copyright ORBIFLY Décembre 2007 - Disclaimer

ORBIFLY MET'MAP TEAM :

Programmation & Développement : Alexandra Zaïnal
Sur une idée originale de : Baudouin d'Aumeries
Assistance à la programmation : Marc-Olivier Méhu
Soutien technique & logistique : Manuel Goepfert

Contact : metmap@orbifly.com




SOURCES & CREDITS :

   NOAA